createdAt,value
2019-04-26T00:00:34.889Z,74.20
2019-04-26T00:04:39.679Z,74.10
2019-04-26T00:08:46.503Z,74.20
2019-04-26T00:13:04.285Z,74.10
2019-04-26T00:17:15.719Z,74.10
2019-04-26T00:21:20.250Z,74.20
2019-04-26T00:25:24.873Z,74.60
2019-04-26T00:29:29.099Z,74.20
2019-04-26T00:33:33.317Z,74.40
2019-04-26T00:37:37.825Z,74.10
2019-04-26T00:41:42.805Z,74.10
2019-04-26T00:45:47.086Z,75.10
2019-04-26T00:49:52.155Z,74.20
2019-04-26T00:53:56.782Z,74.50
2019-04-26T00:58:01.609Z,74.60
2019-04-26T01:02:16.584Z,74.30
2019-04-26T01:06:22.980Z,74.40
2019-04-26T01:10:27.354Z,75.00
2019-04-26T01:14:31.577Z,74.40
2019-04-26T01:18:36.750Z,74.50
2019-04-26T01:22:45.508Z,74.60
2019-04-26T01:26:51.207Z,74.80
2019-04-26T01:30:57.102Z,74.70
2019-04-26T01:35:01.324Z,74.80
2019-04-26T01:39:19.661Z,74.60
2019-04-26T01:43:39.023Z,74.90
2019-04-26T01:47:44.424Z,74.60
2019-04-26T01:51:54.901Z,74.80
2019-04-26T01:55:59.280Z,74.90
2019-04-26T02:04:29.962Z,75.40
2019-04-26T02:08:34.126Z,75.60
2019-04-26T02:12:39.226Z,77.50
2019-04-26T02:16:43.536Z,77.80
2019-04-26T02:21:26.375Z,81.50
2019-04-26T02:25:30.703Z,79.80
2019-04-26T02:29:34.918Z,81.10
2019-04-26T02:33:39.256Z,82.50
2019-04-26T02:37:43.483Z,83.10
2019-04-26T02:41:50.040Z,83.20
2019-04-26T02:46:11.684Z,83.40
2019-04-26T02:50:30.328Z,82.30
2019-04-26T02:54:45.850Z,85.50
2019-04-26T02:59:37.789Z,89.30
2019-04-26T03:03:41.300Z,86.60
2019-04-26T03:08:08.426Z,88.70
2019-04-26T03:12:15.613Z,89.80
2019-04-26T03:16:47.912Z,90.00
2019-04-26T03:20:58.517Z,88.80
2019-04-26T03:25:15.040Z,87.30
2019-04-26T03:29:25.678Z,86.30
2019-04-26T03:34:15.607Z,85.70
2019-04-26T03:38:50.248Z,84.90
2019-04-26T03:43:17.912Z,91.10
2019-04-26T03:47:25.819Z,89.20
2019-04-26T03:51:43.093Z,87.50
2019-04-26T03:56:23.816Z,86.80
2019-04-26T04:00:48.494Z,91.70
2019-04-26T04:05:13.735Z,91.90
2019-04-26T04:09:19.902Z,91.10
2019-04-26T04:14:09.431Z,90.20
2019-04-26T04:18:20.887Z,91.30
2019-04-26T04:22:28.301Z,90.80
2019-04-26T04:27:10.990Z,90.20
2019-04-26T04:31:18.211Z,90.40
2019-04-26T04:35:24.810Z,90.90
2019-04-26T04:39:53.642Z,91.30
2019-04-26T04:44:19.728Z,90.40
2019-04-26T04:48:49.049Z,89.70
2019-04-26T04:53:08.123Z,90.90
2019-04-26T04:57:41.919Z,92.30
2019-04-26T05:02:22.335Z,93.30
2019-04-26T05:07:13.732Z,92.30
2019-04-26T05:11:27.067Z,91.50
2019-04-26T05:16:01.290Z,91.00
2019-04-26T05:20:28.867Z,91.10
2019-04-26T05:24:45.721Z,90.80
2019-04-26T05:29:09.708Z,90.90
2019-04-26T05:33:42.628Z,90.90
2019-04-26T05:38:17.908Z,91.20
2019-04-26T05:43:22.133Z,90.90
2019-04-26T05:47:39.288Z,93.30
2019-04-26T05:52:22.447Z,93.60
2019-04-26T05:56:40.908Z,94.70
2019-04-26T06:01:17.555Z,93.70
2019-04-26T06:06:05.303Z,93.00
2019-04-26T06:10:33.428Z,92.50
2019-04-26T06:14:52.889Z,92.80
2019-04-26T06:19:24.722Z,92.70
2019-04-26T06:24:12.904Z,92.40
2019-04-26T06:28:59.055Z,93.00
2019-04-26T06:33:32.008Z,92.90
2019-04-26T06:37:48.632Z,92.60
2019-04-26T06:42:46.406Z,92.60
2019-04-26T06:47:08.962Z,92.50
2019-04-26T06:51:24.643Z,92.40
2019-04-26T06:55:33.151Z,92.50
2019-04-26T06:59:54.006Z,92.10
2019-04-26T07:04:31.454Z,92.60
2019-04-26T07:08:57.777Z,92.80
2019-04-26T07:13:34.823Z,92.30
2019-04-26T07:17:58.936Z,92.20
2019-04-26T07:22:35.261Z,92.00
2019-04-26T07:27:05.444Z,92.40
2019-04-26T07:31:18.237Z,92.10
2019-04-26T07:36:12.708Z,92.10
2019-04-26T07:41:05.146Z,92.00
2019-04-26T07:45:48.317Z,92.20
2019-04-26T07:50:32.747Z,92.00
2019-04-26T07:55:33.329Z,92.80
2019-04-26T08:00:13.015Z,92.40
2019-04-26T08:04:22.264Z,92.50
2019-04-26T08:08:31.101Z,92.20
2019-04-26T08:12:37.675Z,93.00
2019-04-26T08:17:40.156Z,92.60
2019-04-26T08:21:49.056Z,92.50
2019-04-26T08:25:55.800Z,92.40
2019-04-26T08:30:10.240Z,92.40
2019-04-26T08:34:15.183Z,92.80
2019-04-26T08:38:22.813Z,92.50
2019-04-26T08:42:35.175Z,92.80
2019-04-26T08:46:56.961Z,92.50
2019-04-26T08:51:04.479Z,92.70
2019-04-26T08:55:10.560Z,92.50
2019-04-26T08:59:20.739Z,92.80
2019-04-26T09:03:39.174Z,92.50
2019-04-26T09:07:46.466Z,92.90
2019-04-26T09:11:59.865Z,92.60
2019-04-26T09:16:13.950Z,92.70
2019-04-26T09:20:28.344Z,92.60
2019-04-26T09:24:46.787Z,92.50
2019-04-26T09:29:18.887Z,92.70
2019-04-26T09:33:31.846Z,93.60
2019-04-26T09:37:35.473Z,92.90
2019-04-26T09:41:39.794Z,92.70
2019-04-26T09:46:21.692Z,92.70
2019-04-26T09:50:34.171Z,92.70
2019-04-26T09:54:38.387Z,92.70
2019-04-26T09:58:42.696Z,92.90
2019-04-26T10:02:46.965Z,93.00
2019-04-26T10:06:51.182Z,94.10
2019-04-26T10:10:55.580Z,93.30
2019-04-26T10:15:17.485Z,93.00
2019-04-26T10:19:42.605Z,93.00
2019-04-26T10:23:46.843Z,92.70
2019-04-26T10:27:51.137Z,92.50
2019-04-26T10:31:55.439Z,92.30
2019-04-26T10:35:59.675Z,92.20
2019-04-26T10:40:04.436Z,92.30
2019-04-26T10:44:08.664Z,92.20
2019-04-26T10:48:15.517Z,92.20
2019-04-26T10:52:29.951Z,92.10
2019-04-26T10:56:38.686Z,92.10
2019-04-26T11:00:48.340Z,92.40
2019-04-26T11:04:50.856Z,92.20
2019-04-26T11:08:55.057Z,92.20
2019-04-26T11:12:59.271Z,92.00
2019-04-26T11:17:04.493Z,92.10
2019-04-26T11:21:08.794Z,92.20
2019-04-26T11:25:13.011Z,92.60
2019-04-26T11:29:17.316Z,92.70
2019-04-26T11:33:21.570Z,92.60
2019-04-26T11:37:25.812Z,92.90
2019-04-26T11:41:30.032Z,93.10
2019-04-26T11:45:34.351Z,93.20
2019-04-26T11:49:41.612Z,93.10
2019-04-26T11:53:44.947Z,93.80
2019-04-26T11:57:50.345Z,93.80
2019-04-26T12:01:54.564Z,93.50
2019-04-26T12:06:11.337Z,93.10
2019-04-26T12:10:15.748Z,93.00
2019-04-26T12:14:20.771Z,93.00
2019-04-26T12:18:25.411Z,93.20
2019-04-26T12:22:29.770Z,93.70
2019-04-26T12:26:42.546Z,93.50
2019-04-26T12:30:39.899Z,93.70
2019-04-26T12:34:44.158Z,93.30
2019-04-26T12:38:48.513Z,93.60
2019-04-26T12:42:52.943Z,93.20
2019-04-26T12:47:09.072Z,93.10
2019-04-26T12:51:13.542Z,93.00
2019-04-26T12:55:18.364Z,93.00
2019-04-26T12:59:26.520Z,92.80
2019-04-26T13:03:30.486Z,92.90
2019-04-26T13:07:34.860Z,92.70
2019-04-26T13:11:52.811Z,92.70
2019-04-26T13:16:14.977Z,92.70
2019-04-26T13:20:19.185Z,92.60
2019-04-26T13:24:23.505Z,92.50
2019-04-26T13:28:27.715Z,92.50
2019-04-26T13:32:31.935Z,92.50
2019-04-26T13:36:36.160Z,92.50
2019-04-26T13:40:40.454Z,92.50
2019-04-26T13:45:12.287Z,92.60
2019-04-26T13:49:22.540Z,92.50
2019-04-26T13:53:26.968Z,92.40
2019-04-26T13:57:31.177Z,92.60
2019-04-26T14:01:35.459Z,92.60
2019-04-26T14:05:39.663Z,92.50
2019-04-26T14:09:43.962Z,92.30
2019-04-26T14:13:48.179Z,92.30
2019-04-26T14:17:52.406Z,92.30
2019-04-26T14:21:56.723Z,92.40
2019-04-26T14:26:13.142Z,92.50
2019-04-26T14:30:17.452Z,92.50
2019-04-26T14:34:21.712Z,92.50
2019-04-26T14:38:28.032Z,92.50
2019-04-26T14:42:35.154Z,92.40
2019-04-26T14:46:48.211Z,92.30
2019-04-26T14:50:43.822Z,92.30
2019-04-26T14:54:48.050Z,92.40
2019-04-26T14:58:52.356Z,92.80
2019-04-26T15:03:05.160Z,93.30
2019-04-26T15:07:09.391Z,93.10
2019-04-26T15:11:13.832Z,92.90
2019-04-26T15:15:18.065Z,92.80
2019-04-26T15:19:22.622Z,92.80
2019-04-26T15:23:26.858Z,92.70
2019-04-26T15:27:32.174Z,92.70
2019-04-26T15:31:36.923Z,92.60
2019-04-26T15:35:42.145Z,92.90
2019-04-26T15:39:58.850Z,92.80
2019-04-26T15:44:15.799Z,92.80
2019-04-26T15:48:40.314Z,92.90
2019-04-26T15:52:44.539Z,92.60
2019-04-26T15:56:49.436Z,92.80
2019-04-26T16:00:54.783Z,92.90
2019-04-26T16:04:59.077Z,92.80
2019-04-26T16:09:03.408Z,93.00
2019-04-26T16:13:18.184Z,93.00
2019-04-26T16:17:13.473Z,92.70
2019-04-26T16:21:19.257Z,92.80
2019-04-26T16:25:23.759Z,93.20
2019-04-26T16:29:50.828Z,93.00
2019-04-26T16:33:56.746Z,93.10
2019-04-26T16:38:20.099Z,92.90
2019-04-26T16:42:24.432Z,93.00
2019-04-26T16:46:28.656Z,93.40
2019-04-26T16:50:37.195Z,93.00
2019-04-26T16:54:38.775Z,93.00
2019-04-26T16:58:45.534Z,93.00
2019-04-26T17:02:48.960Z,93.00
2019-04-26T17:06:53.277Z,93.30
2019-04-26T17:11:00.775Z,93.10
2019-04-26T17:15:03.470Z,94.50
2019-04-26T17:19:07.781Z,93.60
2019-04-26T17:23:37.069Z,93.30
2019-04-26T17:27:45.932Z,93.20
2019-04-26T17:31:47.313Z,93.10
2019-04-26T17:35:51.558Z,93.10
2019-04-26T17:39:55.852Z,93.20
2019-04-26T17:44:08.451Z,93.20
2019-04-26T17:48:06.680Z,93.10
2019-04-26T17:52:11.914Z,93.10
2019-04-26T17:56:16.190Z,93.00
2019-04-26T18:00:27.457Z,93.10
2019-04-26T18:04:36.049Z,93.20
2019-04-26T18:08:45.187Z,93.00
2019-04-26T18:12:43.835Z,93.00
2019-04-26T18:16:57.167Z,92.90
2019-04-26T18:21:30.055Z,93.00
2019-04-26T18:25:34.277Z,93.10
2019-04-26T18:29:38.509Z,93.00
2019-04-26T18:33:42.787Z,93.10
2019-04-26T18:37:47.027Z,93.10
2019-04-26T18:41:51.255Z,93.00
2019-04-26T18:45:58.684Z,93.10
2019-04-26T18:50:03.605Z,93.10
2019-04-26T18:54:17.742Z,93.00
2019-04-26T18:58:19.728Z,93.20
2019-04-26T19:02:25.432Z,93.00
2019-04-26T19:06:31.851Z,93.20
2019-04-26T19:10:35.651Z,93.20
2019-04-26T19:15:07.411Z,93.20
2019-04-26T19:19:28.633Z,93.10
2019-04-26T19:23:33.068Z,93.20
2019-04-26T19:27:47.434Z,93.20
2019-04-26T19:31:43.498Z,93.20
2019-04-26T19:35:47.800Z,93.00
2019-04-26T19:39:52.057Z,92.90
2019-04-26T19:43:56.332Z,93.00
2019-04-26T19:48:18.880Z,93.20
2019-04-26T19:52:40.580Z,93.10
2019-04-26T19:56:51.335Z,93.40
2019-04-26T20:00:55.743Z,93.20
2019-04-26T20:05:02.453Z,93.40
2019-04-26T20:09:07.359Z,93.00
2019-04-26T20:13:15.230Z,93.30
2019-04-26T20:17:20.049Z,93.50
2019-04-26T20:21:23.539Z,93.70
2019-04-26T20:25:29.953Z,93.80
2019-04-26T20:29:33.794Z,93.70
2019-04-26T20:33:38.215Z,93.60
2019-04-26T20:37:44.915Z,94.00
2019-04-26T20:42:00.497Z,93.90
2019-04-26T20:46:10.618Z,94.50
2019-04-26T20:50:02.988Z,94.30
2019-04-26T20:54:12.008Z,94.80
2019-04-26T20:58:12.985Z,94.40
2019-04-26T21:02:20.755Z,93.80
2019-04-26T21:06:23.162Z,94.30
2019-04-26T21:10:27.546Z,94.10
2019-04-26T21:14:31.795Z,94.10
2019-04-26T21:18:40.009Z,94.00
2019-04-26T21:22:42.007Z,94.10
2019-04-26T21:27:06.589Z,93.80
2019-04-26T21:31:16.302Z,93.70
2019-04-26T21:35:25.009Z,93.60
2019-04-26T21:39:47.710Z,93.70
2019-04-26T21:43:53.291Z,93.40
2019-04-26T21:47:57.688Z,93.30
2019-04-26T21:52:01.932Z,93.60
2019-04-26T21:56:07.514Z,93.40
2019-04-26T22:00:43.703Z,93.30
2019-04-26T22:04:48.022Z,93.40
2019-04-26T22:08:58.958Z,93.40
2019-04-26T22:13:05.693Z,93.50
2019-04-26T22:17:29.673Z,93.30
2019-04-26T22:21:40.249Z,93.40
2019-04-26T22:25:46.977Z,93.70
2019-04-26T22:29:51.792Z,94.30
2019-04-26T22:33:56.320Z,93.60
2019-04-26T22:38:00.675Z,93.70
2019-04-26T22:42:05.058Z,93.90
2019-04-26T22:46:31.334Z,93.60
2019-04-26T22:50:35.345Z,93.80
2019-04-26T22:54:44.685Z,94.00
2019-04-26T22:58:45.431Z,93.60
2019-04-26T23:02:49.654Z,93.60
2019-04-26T23:06:56.195Z,94.40
2019-04-26T23:11:02.365Z,93.70
2019-04-26T23:15:30.030Z,93.70
2019-04-26T23:19:39.647Z,93.80
2019-04-26T23:23:44.299Z,93.70
2019-04-26T23:27:50.485Z,93.40
2019-04-26T23:31:55.557Z,93.50
2019-04-26T23:35:59.855Z,93.30
2019-04-26T23:40:04.137Z,93.50
2019-04-26T23:44:08.365Z,93.60
2019-04-26T23:48:13.408Z,93.60
2019-04-26T23:52:18.684Z,93.50
2019-04-26T23:56:25.253Z,93.70
